Vitacura, Chile
Current Conditions -  °F | °C
As of 10:00 AM on Friday 31 Oct 2014 (Local Time) from SCEL Reporting Station
Clear Clear  
Wind Chill: 64°   Ceiling: Unl
Heat Index: 64°   Visibility: 6mi
Dew Point: 37°   Wind: 3mph
Humidity: 37%   Direction: 10°N
Pressure: 30"   Gusts: NA
Location:  33.4°S, 70.6°W
Report Text: SCEL 311400Z 01003KT 310V050 CAVOK 18/03 Q1016 NOSIG
Loading
Personal Weather Stations






























Interactive Weather Map
Tropical Storm Tracking
New forecast layout! Learn more

10-Day Weather Forecast

Advertisements
Track Severe Weather on mobile